sensor_id;sensor_type;location;lat;lon;timestamp;pressure;altitude;pressure_sealevel;temperature
18161;BMP280;9205;52.032;4.314;2023-08-01T00:00:51;99834.09;;;18.84
18161;BMP280;9205;52.032;4.314;2023-08-01T00:03:20;99824.66;;;18.85
18161;BMP280;9205;52.032;4.314;2023-08-01T00:05:47;99820.31;;;18.85
18161;BMP280;9205;52.032;4.314;2023-08-01T00:08:14;99818.66;;;18.84
18161;BMP280;9205;52.032;4.314;2023-08-01T00:10:42;99822.88;;;18.85
18161;BMP280;9205;52.032;4.314;2023-08-01T00:13:09;99816.66;;;18.77
18161;BMP280;9205;52.032;4.314;2023-08-01T00:15:36;99809.00;;;18.75
18161;BMP280;9205;52.032;4.314;2023-08-01T00:18:04;99817.56;;;18.76
18161;BMP280;9205;52.032;4.314;2023-08-01T00:20:32;99805.19;;;18.81
18161;BMP280;9205;52.032;4.314;2023-08-01T00:22:59;99809.31;;;18.83
18161;BMP280;9205;52.032;4.314;2023-08-01T00:25:27;99800.78;;;18.83
18161;BMP280;9205;52.032;4.314;2023-08-01T00:27:54;99800.66;;;18.84
18161;BMP280;9205;52.032;4.314;2023-08-01T00:30:22;99791.09;;;18.86
18161;BMP280;9205;52.032;4.314;2023-08-01T00:32:49;99796.22;;;18.86
18161;BMP280;9205;52.032;4.314;2023-08-01T00:35:17;99786.88;;;18.85
18161;BMP280;9205;52.032;4.314;2023-08-01T00:37:45;99788.72;;;18.83
18161;BMP280;9205;52.032;4.314;2023-08-01T00:40:13;99779.34;;;18.82
18161;BMP280;9205;52.032;4.314;2023-08-01T00:42:40;99777.50;;;18.84
18161;BMP280;9205;52.032;4.314;2023-08-01T00:45:09;99779.16;;;18.85
18161;BMP280;9205;52.032;4.314;2023-08-01T00:47:36;99780.91;;;18.85
18161;BMP280;9205;52.032;4.314;2023-08-01T00:50:05;99774.81;;;18.85
18161;BMP280;9205;52.032;4.314;2023-08-01T00:52:33;99777.28;;;18.87
18161;BMP280;9205;52.032;4.314;2023-08-01T00:55:02;99774.81;;;18.85
18161;BMP280;9205;52.032;4.314;2023-08-01T00:57:30;99764.53;;;18.85
18161;BMP280;9205;52.032;4.314;2023-08-01T00:59:57;99764.31;;;18.88
18161;BMP280;9205;52.032;4.314;2023-08-01T01:02:24;99768.53;;;18.89
18161;BMP280;9205;52.032;4.314;2023-08-01T01:04:52;99761.84;;;18.87
18161;BMP280;9205;52.032;4.314;2023-08-01T01:07:21;99766.88;;;18.88
18161;BMP280;9205;52.032;4.314;2023-08-01T01:09:50;99779.53;;;18.91
18161;BMP280;9205;52.032;4.314;2023-08-01T01:12:18;99777.97;;;18.89
18161;BMP280;9205;52.032;4.314;2023-08-01T01:14:44;99767.59;;;18.90
18161;BMP280;9205;52.032;4.314;2023-08-01T01:17:12;99778.94;;;18.88
18161;BMP280;9205;52.032;4.314;2023-08-01T01:19:39;99766.75;;;18.90
18161;BMP280;9205;52.032;4.314;2023-08-01T01:22:10;99772.75;;;18.90
18161;BMP280;9205;52.032;4.314;2023-08-01T01:24:39;99770.06;;;18.92
18161;BMP280;9205;52.032;4.314;2023-08-01T01:27:08;99764.00;;;18.93
18161;BMP280;9205;52.032;4.314;2023-08-01T01:29:37;99754.41;;;18.95
18161;BMP280;9205;52.032;4.314;2023-08-01T01:32:07;99761.22;;;18.96
18161;BMP280;9205;52.032;4.314;2023-08-01T01:34:34;99757.91;;;18.94
18161;BMP280;9205;52.032;4.314;2023-08-01T01:37:02;99756.06;;;18.96
18161;BMP280;9205;52.032;4.314;2023-08-01T01:39:30;99757.47;;;19.00
18161;BMP280;9205;52.032;4.314;2023-08-01T01:41:57;99756.41;;;19.02
18161;BMP280;9205;52.032;4.314;2023-08-01T01:44:25;99752.91;;;19.03
18161;BMP280;9205;52.032;4.314;2023-08-01T01:46:52;99762.41;;;19.03
18161;BMP280;9205;52.032;4.314;2023-08-01T01:49:19;99748.81;;;19.01
18161;BMP280;9205;52.032;4.314;2023-08-01T01:51:46;99761.22;;;18.96
18161;BMP280;9205;52.032;4.314;2023-08-01T01:54:14;99760.50;;;18.94
18161;BMP280;9205;52.032;4.314;2023-08-01T01:56:42;99763.66;;;18.97
18161;BMP280;9205;52.032;4.314;2023-08-01T01:59:09;99754.41;;;18.95
18161;BMP280;9205;52.032;4.314;2023-08-01T02:01:37;99746.78;;;18.93
18161;BMP280;9205;52.032;4.314;2023-08-01T02:04:04;99750.41;;;18.91
18161;BMP280;9205;52.032;4.314;2023-08-01T02:06:32;99748.53;;;18.93
18161;BMP280;9205;52.032;4.314;2023-08-01T02:09:00;99747.81;;;18.91
18161;BMP280;9205;52.032;4.314;2023-08-01T02:11:29;99740.44;;;18.86
18161;BMP280;9205;52.032;4.314;2023-08-01T02:13:58;99753.81;;;18.91
18161;BMP280;9205;52.032;4.314;2023-08-01T02:16:25;99744.44;;;18.90
18161;BMP280;9205;52.032;4.314;2023-08-01T02:18:52;99741.03;;;18.90
18161;BMP280;9205;52.032;4.314;2023-08-01T02:21:19;99739.19;;;18.92
18161;BMP280;9205;52.032;4.314;2023-08-01T02:23:46;99741.03;;;18.90
18161;BMP280;9205;52.032;4.314;2023-08-01T02:26:14;99737.19;;;18.85
18161;BMP280;9205;52.032;4.314;2023-08-01T02:28:41;99739.63;;;18.86
18161;BMP280;9205;52.032;4.314;2023-08-01T02:31:10;99737.97;;;18.85
18161;BMP280;9205;52.032;4.314;2023-08-01T02:33:37;99741.28;;;18.87
18161;BMP280;9205;52.032;4.314;2023-08-01T02:36:05;99736.13;;;18.87
18161;BMP280;9205;52.032;4.314;2023-08-01T02:38:32;99740.75;;;18.82
18161;BMP280;9205;52.032;4.314;2023-08-01T02:40:59;99747.56;;;18.83
18161;BMP280;9205;52.032;4.314;2023-08-01T02:43:26;99749.91;;;18.86
18161;BMP280;9205;52.032;4.314;2023-08-01T02:45:53;99744.97;;;18.83
18161;BMP280;9205;52.032;4.314;2023-08-01T02:48:22;99745.91;;;18.82
18161;BMP280;9205;52.032;4.314;2023-08-01T02:50:49;99741.69;;;18.81
18161;BMP280;9205;52.032;4.314;2023-08-01T02:53:17;99752.09;;;18.80
18161;BMP280;9205;52.032;4.314;2023-08-01T02:55:44;99745.31;;;18.79
18161;BMP280;9205;52.032;4.314;2023-08-01T02:58:13;99751.06;;;18.82
18161;BMP280;9205;52.032;4.314;2023-08-01T03:00:40;99747.69;;;18.82
18161;BMP280;9205;52.032;4.314;2023-08-01T03:03:08;99747.47;;;18.85
18161;BMP280;9205;52.032;4.314;2023-08-01T03:05:37;99744.97;;;18.83
18161;BMP280;9205;52.032;4.314;2023-08-01T03:08:05;99761.13;;;18.85
18161;BMP280;9205;52.032;4.314;2023-08-01T03:10:32;99752.69;;;18.83
18161;BMP280;9205;52.032;4.314;2023-08-01T03:13:00;99749.31;;;18.83
18161;BMP280;9205;52.032;4.314;2023-08-01T03:15:28;99750.13;;;18.83
18161;BMP280;9205;52.032;4.314;2023-08-01T03:17:56;99750.66;;;18.88
18161;BMP280;9205;52.032;4.314;2023-08-01T03:20:23;99755.06;;;18.86
18161;BMP280;9205;52.032;4.314;2023-08-01T03:22:52;99758.78;;;18.82
18161;BMP280;9205;52.032;4.314;2023-08-01T03:25:19;99759.38;;;18.85
18161;BMP280;9205;52.032;4.314;2023-08-01T03:27:46;99757.84;;;18.83
18161;BMP280;9205;52.032;4.314;2023-08-01T03:30:13;99763.91;;;18.82
18161;BMP280;9205;52.032;4.314;2023-08-01T03:32:40;99770.22;;;18.78
18161;BMP280;9205;52.032;4.314;2023-08-01T03:35:08;99765.41;;;18.74
18161;BMP280;9205;52.032;4.314;2023-08-01T03:37:35;99773.13;;;18.74
18161;BMP280;9205;52.032;4.314;2023-08-01T03:40:07;99765.53;;;18.72
18161;BMP280;9205;52.032;4.314;2023-08-01T03:42:35;99768.56;;;18.77
18161;BMP280;9205;52.032;4.314;2023-08-01T03:45:03;99768.78;;;18.74
18161;BMP280;9205;52.032;4.314;2023-08-01T03:47:31;99766.44;;;18.71
18161;BMP280;9205;52.032;4.314;2023-08-01T03:49:58;99775.69;;;18.74
18161;BMP280;9205;52.032;4.314;2023-08-01T03:52:26;99764.59;;;18.73
18161;BMP280;9205;52.032;4.314;2023-08-01T03:54:54;99771.34;;;18.74
18161;BMP280;9205;52.032;4.314;2023-08-01T03:57:23;99756.75;;;18.75
18161;BMP280;9205;52.032;4.314;2023-08-01T03:59:51;99767.84;;;18.75
18161;BMP280;9205;52.032;4.314;2023-08-01T04:02:18;99770.56;;;18.74
18161;BMP280;9205;52.032;4.314;2023-08-01T04:04:45;99767.97;;;18.74
18161;BMP280;9205;52.032;4.314;2023-08-01T04:07:12;99762.94;;;18.72
18161;BMP280;9205;52.032;4.314;2023-08-01T04:09:40;99764.81;;;18.70
18161;BMP280;9205;52.032;4.314;2023-08-01T04:12:07;99763.88;;;18.71
18161;BMP280;9205;52.032;4.314;2023-08-01T04:14:36;99758.22;;;18.66
18161;BMP280;9205;52.032;4.314;2023-08-01T04:17:04;99770.38;;;18.64
18161;BMP280;9205;52.032;4.314;2023-08-01T04:19:31;99767.09;;;18.62
18161;BMP280;9205;52.032;4.314;2023-08-01T04:21:58;99766.88;;;18.65
18161;BMP280;9205;52.032;4.314;2023-08-01T04:24:25;99771.06;;;18.66
18161;BMP280;9205;52.032;4.314;2023-08-01T04:26:53;99768.63;;;18.65
18161;BMP280;9205;52.032;4.314;2023-08-01T04:29:20;99770.38;;;18.64
18161;BMP280;9205;52.032;4.314;2023-08-01T04:31:49;99761.94;;;18.62
18161;BMP280;9205;52.032;4.314;2023-08-01T04:34:16;99766.78;;;18.67
18161;BMP280;9205;52.032;4.314;2023-08-01T04:36:43;99758.78;;;18.59
18161;BMP280;9205;52.032;4.314;2023-08-01T04:39:10;99769.19;;;18.57
18161;BMP280;9205;52.032;4.314;2023-08-01T04:41:38;99771.03;;;18.55
18161;BMP280;9205;52.032;4.314;2023-08-01T04:44:05;99761.16;;;18.49
18161;BMP280;9205;52.032;4.314;2023-08-01T04:46:32;99781.44;;;18.54
18161;BMP280;9205;52.032;4.314;2023-08-01T04:49:01;99772.66;;;18.56
18161;BMP280;9205;52.032;4.314;2023-08-01T04:51:28;99775.53;;;18.64
18161;BMP280;9205;52.032;4.314;2023-08-01T04:53:55;99781.59;;;18.63
18161;BMP280;9205;52.032;4.314;2023-08-01T04:56:22;99778.09;;;18.64
18161;BMP280;9205;52.032;4.314;2023-08-01T04:58:49;99766.25;;;18.62
18161;BMP280;9205;52.032;4.314;2023-08-01T05:01:17;99781.06;;;18.58
18161;BMP280;9205;52.032;4.314;2023-08-01T05:03:44;99779.94;;;18.62
18161;BMP280;9205;52.032;4.314;2023-08-01T05:06:12;99775.94;;;18.58
18161;BMP280;9205;52.032;4.314;2023-08-01T05:08:39;99775.94;;;18.58
18161;BMP280;9205;52.032;4.314;2023-08-01T05:11:07;99777.69;;;18.58
18161;BMP280;9205;52.032;4.314;2023-08-01T05:13:34;99774.31;;;18.57
18161;BMP280;9205;52.032;4.314;2023-08-01T05:16:01;99769.88;;;18.59
18161;BMP280;9205;52.032;4.314;2023-08-01T05:18:29;99773.34;;;18.58
18161;BMP280;9205;52.032;4.314;2023-08-01T05:20:56;99775.94;;;18.58
18161;BMP280;9205;52.032;4.314;2023-08-01T05:23:25;99767.28;;;18.59
18161;BMP280;9205;52.032;4.314;2023-08-01T05:25:52;99773.28;;;18.60
18161;BMP280;9205;52.032;4.314;2023-08-01T05:28:19;99763.69;;;18.62
18161;BMP280;9205;52.032;4.314;2023-08-01T05:30:47;99773.31;;;18.71
18161;BMP280;9205;52.032;4.314;2023-08-01T05:33:14;99787.19;;;18.81
18161;BMP280;9205;52.032;4.314;2023-08-01T05:35:42;99786.16;;;18.83
18161;BMP280;9205;52.032;4.314;2023-08-01T05:38:09;99788.00;;;18.81
18161;BMP280;9205;52.032;4.314;2023-08-01T05:40:38;99795.84;;;18.80
18161;BMP280;9205;52.032;4.314;2023-08-01T05:43:05;99793.97;;;18.82
18161;BMP280;9205;52.032;4.314;2023-08-01T05:45:34;99792.13;;;18.84
18161;BMP280;9205;52.032;4.314;2023-08-01T05:48:01;99784.16;;;18.86
18161;BMP280;9205;52.032;4.314;2023-08-01T05:50:29;99791.91;;;18.86
18161;BMP280;9205;52.032;4.314;2023-08-01T05:52:56;99793.69;;;18.97
18161;BMP280;9205;52.032;4.314;2023-08-01T05:55:23;99792.69;;;18.99
18161;BMP280;9205;52.032;4.314;2023-08-01T05:57:52;99793.38;;;19.01
18161;BMP280;9205;52.032;4.314;2023-08-01T06:00:20;99792.63;;;19.12
18161;BMP280;9205;52.032;4.314;2023-08-01T06:02:47;99787.28;;;19.15
18161;BMP280;9205;52.032;4.314;2023-08-01T06:05:15;99805.41;;;19.13
18161;BMP280;9205;52.032;4.314;2023-08-01T06:07:42;99790.59;;;19.04
18161;BMP280;9205;52.032;4.314;2023-08-01T06:10:10;99801.94;;;19.02
18161;BMP280;9205;52.032;4.314;2023-08-01T06:12:37;99804.50;;;19.02
18161;BMP280;9205;52.032;4.314;2023-08-01T06:15:07;99802.56;;;18.93
18161;BMP280;9205;52.032;4.314;2023-08-01T06:17:34;99808.16;;;18.87
18161;BMP280;9205;52.032;4.314;2023-08-01T06:20:01;99807.66;;;18.82
18161;BMP280;9205;52.032;4.314;2023-08-01T06:22:30;99822.69;;;18.88
18161;BMP280;9205;52.032;4.314;2023-08-01T06:24:57;99809.91;;;18.86
18161;BMP280;9205;52.032;4.314;2023-08-01T06:27:25;99820.72;;;18.91
18161;BMP280;9205;52.032;4.314;2023-08-01T06:29:52;99820.88;;;19.01
18161;BMP280;9205;52.032;4.314;2023-08-01T06:32:20;99815.72;;;19.01
18161;BMP280;9205;52.032;4.314;2023-08-01T06:34:48;99825.81;;;19.04
18161;BMP280;9205;52.032;4.314;2023-08-01T06:37:15;99829.63;;;19.11
18161;BMP280;9205;52.032;4.314;2023-08-01T06:39:42;99822.81;;;19.10
18161;BMP280;9205;52.032;4.314;2023-08-01T06:42:10;99831.16;;;19.01
18161;BMP280;9205;52.032;4.314;2023-08-01T06:44:37;99848.47;;;18.99
18161;BMP280;9205;52.032;4.314;2023-08-01T06:47:05;99834.06;;;18.96
18161;BMP280;9205;52.032;4.314;2023-08-01T06:49:33;99837.56;;;18.95
18161;BMP280;9205;52.032;4.314;2023-08-01T06:52:01;99833.34;;;18.94
18161;BMP280;9205;52.032;4.314;2023-08-01T06:54:28;99838.41;;;18.96
18161;BMP280;9205;52.032;4.314;2023-08-01T06:56:55;99838.75;;;19.02
18161;BMP280;9205;52.032;4.314;2023-08-01T06:59:27;99856.28;;;19.10
18161;BMP280;9205;52.032;4.314;2023-08-01T07:01:55;99846.81;;;19.10
18161;BMP280;9205;52.032;4.314;2023-08-01T07:04:22;99854.41;;;19.12
18161;BMP280;9205;52.032;4.314;2023-08-01T07:06:51;99854.41;;;19.12
18161;BMP280;9205;52.032;4.314;2023-08-01T07:09:19;99859.34;;;19.15
18161;BMP280;9205;52.032;4.314;2023-08-01T07:11:46;99859.13;;;19.18
18161;BMP280;9205;52.032;4.314;2023-08-01T07:14:13;99858.50;;;19.27
18161;BMP280;9205;52.032;4.314;2023-08-01T07:16:41;99861.53;;;19.32
18161;BMP280;9205;52.032;4.314;2023-08-01T07:19:08;99864.38;;;19.40
18161;BMP280;9205;52.032;4.314;2023-08-01T07:21:35;99857.75;;;19.48
18161;BMP280;9205;52.032;4.314;2023-08-01T07:24:05;99869.25;;;19.55
18161;BMP280;9205;52.032;4.314;2023-08-01T07:26:32;99871.88;;;19.43
18161;BMP280;9205;52.032;4.314;2023-08-01T07:28:59;99872.31;;;19.37
18161;BMP280;9205;52.032;4.314;2023-08-01T07:31:27;99871.50;;;19.36
18161;BMP280;9205;52.032;4.314;2023-08-01T07:33:54;99872.72;;;19.43
18161;BMP280;9205;52.032;4.314;2023-08-01T07:36:22;99868.63;;;19.52
18161;BMP280;9205;52.032;4.314;2023-08-01T07:38:49;99871.94;;;19.54
18161;BMP280;9205;52.032;4.314;2023-08-01T07:41:18;99896.44;;;19.59
18161;BMP280;9205;52.032;4.314;2023-08-01T07:43:45;99874.19;;;19.58
18161;BMP280;9205;52.032;4.314;2023-08-01T07:46:12;99874.66;;;19.63
18161;BMP280;9205;52.032;4.314;2023-08-01T07:48:39;99875.00;;;19.59
18161;BMP280;9205;52.032;4.314;2023-08-01T07:51:07;99872.19;;;19.62
18161;BMP280;9205;52.032;4.314;2023-08-01T07:53:35;99875.50;;;19.64
18161;BMP280;9205;52.032;4.314;2023-08-01T07:56:03;99878.22;;;19.73
18161;BMP280;9205;52.032;4.314;2023-08-01T07:58:35;99883.16;;;19.76
18161;BMP280;9205;52.032;4.314;2023-08-01T08:01:03;99886.78;;;19.84
18161;BMP280;9205;52.032;4.314;2023-08-01T08:03:31;99883.75;;;19.90
18161;BMP280;9205;52.032;4.314;2023-08-01T08:05:58;99885.41;;;19.91
18161;BMP280;9205;52.032;4.314;2023-08-01T08:08:26;99887.56;;;19.97
18161;BMP280;9205;52.032;4.314;2023-08-01T08:10:53;99900.94;;;20.02
18161;BMP280;9205;52.032;4.314;2023-08-01T08:13:21;99898.47;;;20.01
18161;BMP280;9205;52.032;4.314;2023-08-01T08:15:49;99900.41;;;19.86
18161;BMP280;9205;52.032;4.314;2023-08-01T08:18:17;99903.16;;;19.72
18161;BMP280;9205;52.032;4.314;2023-08-01T08:20:45;99902.19;;;19.63
18161;BMP280;9205;52.032;4.314;2023-08-01T08:23:13;99906.84;;;19.58
18161;BMP280;9205;52.032;4.314;2023-08-01T08:25:41;99908.00;;;19.54
18161;BMP280;9205;52.032;4.314;2023-08-01T08:28:11;99910.09;;;19.49
18161;BMP280;9205;52.032;4.314;2023-08-01T08:30:38;99909.84;;;19.52
18161;BMP280;9205;52.032;4.314;2023-08-01T08:33:07;99911.88;;;19.59
18161;BMP280;9205;52.032;4.314;2023-08-01T08:35:36;99901.97;;;19.66
18161;BMP280;9205;52.032;4.314;2023-08-01T08:38:04;99913.22;;;19.75
18161;BMP280;9205;52.032;4.314;2023-08-01T08:40:33;99918.09;;;19.91
18161;BMP280;9205;52.032;4.314;2023-08-01T08:43:02;99902.63;;;19.91
18161;BMP280;9205;52.032;4.314;2023-08-01T08:45:34;99920.56;;;19.92
18161;BMP280;9205;52.032;4.314;2023-08-01T08:48:12;99922.06;;;19.84
18161;BMP280;9205;52.032;4.314;2023-08-01T08:50:41;99919.22;;;19.76
18161;BMP280;9205;52.032;4.314;2023-08-01T08:53:12;99924.72;;;19.82
18161;BMP280;9205;52.032;4.314;2023-08-01T08:55:40;99926.81;;;19.77
18161;BMP280;9205;52.032;4.314;2023-08-01T08:58:08;99924.03;;;19.80
18161;BMP280;9205;52.032;4.314;2023-08-01T09:00:36;99917.84;;;19.83
18161;BMP280;9205;52.032;4.314;2023-08-01T09:03:04;99915.63;;;19.89
18161;BMP280;9205;52.032;4.314;2023-08-01T09:05:44;99919.91;;;20.01
18161;BMP280;9205;52.032;4.314;2023-08-01T09:08:18;99937.25;;;19.99
18161;BMP280;9205;52.032;4.314;2023-08-01T09:10:47;99921.78;;;19.99
18161;BMP280;9205;52.032;4.314;2023-08-01T09:13:15;99923.75;;;19.96
18161;BMP280;9205;52.032;4.314;2023-08-01T09:15:47;99929.94;;;19.93
18161;BMP280;9205;52.032;4.314;2023-08-01T09:18:16;99926.03;;;19.88
18161;BMP280;9205;52.032;4.314;2023-08-01T09:20:47;99921.94;;;19.85
18161;BMP280;9205;52.032;4.314;2023-08-01T09:23:16;99929.66;;;19.85
18161;BMP280;9205;52.032;4.314;2023-08-01T09:25:44;99927.81;;;19.87
18161;BMP280;9205;52.032;4.314;2023-08-01T09:28:17;99941.63;;;19.86
18161;BMP280;9205;52.032;4.314;2023-08-01T09:30:50;99944.16;;;19.75
18161;BMP280;9205;52.032;4.314;2023-08-01T09:33:18;99958.13;;;19.84
18161;BMP280;9205;52.032;4.314;2023-08-01T09:35:49;99942.22;;;19.90
18161;BMP280;9205;52.032;4.314;2023-08-01T09:38:17;99938.81;;;19.89
18161;BMP280;9205;52.032;4.314;2023-08-01T09:40:45;99939.00;;;19.99
18161;BMP280;9205;52.032;4.314;2023-08-01T09:43:14;99955.34;;;20.10
18161;BMP280;9205;52.032;4.314;2023-08-01T09:45:51;99957.19;;;20.08
18161;BMP280;9205;52.032;4.314;2023-08-01T09:48:24;99958.13;;;20.07
18161;BMP280;9205;52.032;4.314;2023-08-01T09:51:07;99954.50;;;20.10
18161;BMP280;9205;52.032;4.314;2023-08-01T09:53:35;99977.81;;;20.08
18161;BMP280;9205;52.032;4.314;2023-08-01T09:56:03;99963.13;;;19.98
18161;BMP280;9205;52.032;4.314;2023-08-01T09:58:33;99967.97;;;20.02
18161;BMP280;9205;52.032;4.314;2023-08-01T10:01:01;99957.44;;;20.16
18161;BMP280;9205;52.032;4.314;2023-08-01T10:03:29;99953.72;;;20.31
18161;BMP280;9205;52.032;4.314;2023-08-01T10:05:59;99957.88;;;20.45
18161;BMP280;9205;52.032;4.314;2023-08-01T10:08:28;99965.94;;;20.51
18161;BMP280;9205;52.032;4.314;2023-08-01T10:10:58;99963.38;;;20.51
18161;BMP280;9205;52.032;4.314;2023-08-01T10:13:27;99977.09;;;20.51
18161;BMP280;9205;52.032;4.314;2023-08-01T10:15:55;99969.94;;;20.44
18161;BMP280;9205;52.032;4.314;2023-08-01T10:18:23;99970.41;;;20.38
18161;BMP280;9205;52.032;4.314;2023-08-01T10:20:51;99969.34;;;20.41
18161;BMP280;9205;52.032;4.314;2023-08-01T10:23:21;99961.00;;;20.26
18161;BMP280;9205;52.032;4.314;2023-08-01T10:25:48;99957.50;;;20.27
18161;BMP280;9205;52.032;4.314;2023-08-01T10:28:16;99963.59;;;20.26
18161;BMP280;9205;52.032;4.314;2023-08-01T10:30:43;99984.22;;;20.37
18161;BMP280;9205;52.032;4.314;2023-08-01T10:33:11;99967.94;;;20.47
18161;BMP280;9205;52.032;4.314;2023-08-01T10:35:40;99971.34;;;20.48
18161;BMP280;9205;52.032;4.314;2023-08-01T10:38:10;99980.53;;;20.63
18161;BMP280;9205;52.032;4.314;2023-08-01T10:40:41;99984.56;;;20.78
18161;BMP280;9205;52.032;4.314;2023-08-01T10:43:19;99973.75;;;20.84
18161;BMP280;9205;52.032;4.314;2023-08-01T10:45:48;99985.38;;;20.78
18161;BMP280;9205;52.032;4.314;2023-08-01T10:48:15;99982.94;;;20.88
18161;BMP280;9205;52.032;4.314;2023-08-01T10:50:54;99988.31;;;20.96
18161;BMP280;9205;52.032;4.314;2023-08-01T10:53:21;99972.84;;;20.96
18161;BMP280;9205;52.032;4.314;2023-08-01T10:55:50;99978.94;;;20.95
18161;BMP280;9205;52.032;4.314;2023-08-01T10:58:17;99989.97;;;20.97
18161;BMP280;9205;52.032;4.314;2023-08-01T11:00:45;99996.06;;;21.07
18161;BMP280;9205;52.032;4.314;2023-08-01T11:03:12;99995.47;;;21.14
18161;BMP280;9205;52.032;4.314;2023-08-01T11:05:41;99997.69;;;21.29
18161;BMP280;9205;52.032;4.314;2023-08-01T11:08:08;100014.59;;;21.33
18161;BMP280;9205;52.032;4.314;2023-08-01T11:10:35;99998.75;;;21.27
18161;BMP280;9205;52.032;4.314;2023-08-01T11:13:11;100006.63;;;21.26
18161;BMP280;9205;52.032;4.314;2023-08-01T11:15:38;100002.03;;;21.18
18161;BMP280;9205;52.032;4.314;2023-08-01T11:18:05;100010.84;;;21.16
18161;BMP280;9205;52.032;4.314;2023-08-01T11:20:39;100022.00;;;21.38
18161;BMP280;9205;52.032;4.314;2023-08-01T11:23:07;100022.75;;;22.13
18161;BMP280;9205;52.032;4.314;2023-08-01T11:25:36;100020.66;;;22.39
18161;BMP280;9205;52.032;4.314;2023-08-01T11:28:07;100012.22;;;22.87
18161;BMP280;9205;52.032;4.314;2023-08-01T11:30:34;100019.06;;;22.68
18161;BMP280;9205;52.032;4.314;2023-08-01T11:33:02;100020.84;;;22.47
18161;BMP280;9205;52.032;4.314;2023-08-01T11:35:40;100028.59;;;22.47
18161;BMP280;9205;52.032;4.314;2023-08-01T11:38:08;100014.34;;;22.21
18161;BMP280;9205;52.032;4.314;2023-08-01T11:40:37;100029.25;;;21.97
18161;BMP280;9205;52.032;4.314;2023-08-01T11:43:06;100019.59;;;21.68
18161;BMP280;9205;52.032;4.314;2023-08-01T11:45:33;100026.56;;;21.56
18161;BMP280;9205;52.032;4.314;2023-08-01T11:48:02;100038.16;;;21.51
18161;BMP280;9205;52.032;4.314;2023-08-01T11:50:29;100038.28;;;21.38
18161;BMP280;9205;52.032;4.314;2023-08-01T11:52:56;100027.97;;;21.49
18161;BMP280;9205;52.032;4.314;2023-08-01T11:55:27;100031.75;;;21.56
18161;BMP280;9205;52.032;4.314;2023-08-01T11:57:55;100025.72;;;21.67
18161;BMP280;9205;52.032;4.314;2023-08-01T12:00:26;100041.66;;;21.72
18161;BMP280;9205;52.032;4.314;2023-08-01T12:03:04;100032.03;;;21.85
18161;BMP280;9205;52.032;4.314;2023-08-01T12:05:32;100040.66;;;22.06
18161;BMP280;9205;52.032;4.314;2023-08-01T12:08:09;100042.84;;;22.10
18161;BMP280;9205;52.032;4.314;2023-08-01T12:10:38;100036.69;;;22.22
18161;BMP280;9205;52.032;4.314;2023-08-01T12:13:06;100046.31;;;22.31
18161;BMP280;9205;52.032;4.314;2023-08-01T12:15:34;100037.06;;;22.49
18161;BMP280;9205;52.032;4.314;2023-08-01T12:18:02;100040.22;;;22.73
18161;BMP280;9205;52.032;4.314;2023-08-01T12:20:29;100048.84;;;22.83
18161;BMP280;9205;52.032;4.314;2023-08-01T12:22:56;100044.50;;;22.83
18161;BMP280;9205;52.032;4.314;2023-08-01T12:25:24;100062.53;;;22.94
18161;BMP280;9205;52.032;4.314;2023-08-01T12:27:51;100053.78;;;23.06
18161;BMP280;9205;52.032;4.314;2023-08-01T12:30:19;100068.88;;;23.01
18161;BMP280;9205;52.032;4.314;2023-08-01T12:32:48;100048.59;;;22.86
18161;BMP280;9205;52.032;4.314;2023-08-01T12:35:15;100051.81;;;22.78
18161;BMP280;9205;52.032;4.314;2023-08-01T12:37:43;100051.31;;;22.64
18161;BMP280;9205;52.032;4.314;2023-08-01T12:40:11;100072.59;;;22.47
18161;BMP280;9205;52.032;4.314;2023-08-01T12:42:38;100062.00;;;22.50
18161;BMP280;9205;52.032;4.314;2023-08-01T12:45:07;100051.72;;;22.59
18161;BMP280;9205;52.032;4.314;2023-08-01T12:47:34;100070.72;;;22.69
18161;BMP280;9205;52.032;4.314;2023-08-01T12:50:05;100058.78;;;22.78
18161;BMP280;9205;52.032;4.314;2023-08-01T12:52:32;100055.47;;;22.76
18161;BMP280;9205;52.032;4.314;2023-08-01T12:55:00;100074.81;;;22.72
18161;BMP280;9205;52.032;4.314;2023-08-01T12:57:27;100076.28;;;22.65
18161;BMP280;9205;52.032;4.314;2023-08-01T12:59:54;100067.00;;;22.62
18161;BMP280;9205;52.032;4.314;2023-08-01T13:02:21;100060.28;;;22.60
18161;BMP280;9205;52.032;4.314;2023-08-01T13:04:49;100060.56;;;22.57
18161;BMP280;9205;52.032;4.314;2023-08-01T13:07:17;100064.81;;;22.47
18161;BMP280;9205;52.032;4.314;2023-08-01T13:09:45;100065.84;;;22.55
18161;BMP280;9205;52.032;4.314;2023-08-01T13:12:13;100069.63;;;22.51
18161;BMP280;9205;52.032;4.314;2023-08-01T13:14:40;100071.69;;;22.37
18161;BMP280;9205;52.032;4.314;2023-08-01T13:17:07;100067.28;;;22.17
18161;BMP280;9205;52.032;4.314;2023-08-01T13:19:35;100075.84;;;22.17
18161;BMP280;9205;52.032;4.314;2023-08-01T13:22:02;100078.91;;;22.22
18161;BMP280;9205;52.032;4.314;2023-08-01T13:24:31;100070.69;;;22.17
18161;BMP280;9205;52.032;4.314;2023-08-01T13:26:59;100067.78;;;22.11
18161;BMP280;9205;52.032;4.314;2023-08-01T13:29:26;100067.78;;;22.11
18161;BMP280;9205;52.032;4.314;2023-08-01T13:31:53;100069.28;;;22.13
18161;BMP280;9205;52.032;4.314;2023-08-01T13:34:21;100077.66;;;22.06
18161;BMP280;9205;52.032;4.314;2023-08-01T13:36:50;100082.03;;;21.95
18161;BMP280;9205;52.032;4.314;2023-08-01T13:39:17;100077.47;;;21.87
18161;BMP280;9205;52.032;4.314;2023-08-01T13:41:46;100081.81;;;21.87
18161;BMP280;9205;52.032;4.314;2023-08-01T13:44:13;100078.63;;;21.94
18161;BMP280;9205;52.032;4.314;2023-08-01T13:46:40;100078.13;;;22.11
18161;BMP280;9205;52.032;4.314;2023-08-01T13:49:07;100073.34;;;22.38
18161;BMP280;9205;52.032;4.314;2023-08-01T13:51:35;100073.72;;;22.54
18161;BMP280;9205;52.032;4.314;2023-08-01T13:54:02;100078.47;;;22.49
18161;BMP280;9205;52.032;4.314;2023-08-01T13:56:29;100071.41;;;22.51
18161;BMP280;9205;52.032;4.314;2023-08-01T13:58:58;100085.56;;;22.36
18161;BMP280;9205;52.032;4.314;2023-08-01T14:01:25;100083.75;;;22.16
18161;BMP280;9205;52.032;4.314;2023-08-01T14:03:53;100088.25;;;22.03
18161;BMP280;9205;52.032;4.314;2023-08-01T14:06:20;100091.06;;;22.11
18161;BMP280;9205;52.032;4.314;2023-08-01T14:08:47;100086.63;;;22.02
18161;BMP280;9205;52.032;4.314;2023-08-01T14:11:15;100091.13;;;21.89
18161;BMP280;9205;52.032;4.314;2023-08-01T14:13:42;100086.19;;;21.86
18161;BMP280;9205;52.032;4.314;2023-08-01T14:16:10;100075.53;;;22.11
18161;BMP280;9205;52.032;4.314;2023-08-01T14:18:38;100102.72;;;22.06
18161;BMP280;9205;52.032;4.314;2023-08-01T14:21:05;100110.91;;;21.57
18161;BMP280;9205;52.032;4.314;2023-08-01T14:23:33;100109.91;;;21.04